Time;durP1;ratioP1;P1;durP2;ratioP2;P2;SDS_P1;SDS_P2;PMS_P1;PMS_P2;Temp;Humidity;BMP_temperature;BMP_pressure;BME280_temperature;BME280_humidity;BME280_pressure;Samples;Min_cycle;Max_cycle;Signal;HPM_P1;HPM_P2
2023/08/14 00:00:13;;;;;;;8.25;5.25;;;23.40;99.90;;;;;;5064857;28;20032;-73
2023/08/14 00:02:39;;;;;;;9.05;4.47;;;23.40;99.90;;;;;;5066000;28;20031;-73
2023/08/14 00:05:05;;;;;;;8.98;4.78;;;23.40;99.90;;;;;;5062608;28;20028;-74
2023/08/14 00:07:31;;;;;;;10.73;4.40;;;23.40;99.90;;;;;;5065956;28;20020;-74
2023/08/14 00:09:56;;;;;;;6.57;4.45;;;23.40;99.90;;;;;;5062343;28;20020;-74
2023/08/14 00:12:22;;;;;;;10.68;4.88;;;23.40;99.90;;;;;;5065219;28;20082;-74
2023/08/14 00:14:48;;;;;;;8.13;5.30;;;23.40;99.90;;;;;;5061984;28;20861;-73
2023/08/14 00:17:13;;;;;;;9.73;5.93;;;23.40;99.90;;;;;;5071600;28;20025;-74
2023/08/14 00:19:39;;;;;;;7.35;5.25;;;23.40;99.90;;;;;;5074120;28;20025;-74
2023/08/14 00:22:05;;;;;;;9.70;4.95;;;23.40;99.90;;;;;;5065976;28;20084;-74
2023/08/14 00:24:30;;;;;;;6.40;4.60;;;23.40;99.90;;;;;;5073740;28;20111;-76
2023/08/14 00:26:56;;;;;;;11.57;5.53;;;23.40;99.90;;;;;;5070018;28;20046;-73
2023/08/14 00:29:22;;;;;;;8.48;4.55;;;23.40;99.90;;;;;;5073528;28;20032;-73
2023/08/14 00:31:47;;;;;;;9.20;4.82;;;23.30;99.90;;;;;;5069907;28;20029;-73
2023/08/14 00:34:13;;;;;;;9.23;4.57;;;23.40;99.90;;;;;;5073296;28;20020;-73
2023/08/14 00:36:39;;;;;;;6.40;5.30;;;23.30;99.90;;;;;;5070878;28;20090;-74
2023/08/14 00:39:04;;;;;;;8.45;5.07;;;23.30;99.90;;;;;;5058862;28;20109;-74
2023/08/14 00:41:30;;;;;;;12.77;5.43;;;23.30;99.90;;;;;;5071212;28;20099;-74
2023/08/14 00:43:56;;;;;;;8.32;5.68;;;23.20;99.90;;;;;;5049033;28;20115;-74
2023/08/14 00:46:23;;;;;;;7.00;5.30;;;23.20;99.90;;;;;;5071178;28;20051;-74
2023/08/14 00:48:49;;;;;;;10.20;4.40;;;23.20;99.90;;;;;;5073716;28;20024;-74
2023/08/14 00:51:15;;;;;;;7.55;5.18;;;23.20;99.90;;;;;;5071342;28;20123;-74
2023/08/14 00:53:41;;;;;;;11.10;4.72;;;23.20;99.90;;;;;;5072825;28;20034;-74
2023/08/14 00:56:07;;;;;;;8.02;4.70;;;23.20;99.90;;;;;;5071036;28;20043;-74
2023/08/14 00:58:33;;;;;;;12.98;4.97;;;23.20;99.90;;;;;;5071791;28;20025;-73
2023/08/14 01:00:59;;;;;;;6.20;4.78;;;23.20;99.90;;;;;;5070922;28;20408;-73
2023/08/14 01:03:25;;;;;;;13.15;5.47;;;23.30;99.90;;;;;;5072052;28;20025;-74
2023/08/14 01:05:51;;;;;;;8.32;5.03;;;23.20;99.90;;;;;;5068971;28;20115;-73
2023/08/14 01:08:16;;;;;;;8.55;4.78;;;23.20;99.90;;;;;;5072934;28;20437;-74
2023/08/14 01:10:48;;;;;;;8.65;4.72;;;23.30;99.90;;;;;;5070938;28;20025;-74
2023/08/14 01:13:20;;;;;;;8.40;4.63;;;23.30;99.90;;;;;;5049270;28;20044;-73
2023/08/14 01:15:50;;;;;;;11.10;5.38;;;23.30;99.90;;;;;;5069965;28;20021;-74
2023/08/14 01:18:18;;;;;;;10.77;5.30;;;23.40;99.90;;;;;;5072880;28;20581;-73
2023/08/14 01:21:03;;;;;;;6.65;4.75;;;23.30;99.90;;;;;;5062745;28;20033;-74
2023/08/14 01:23:57;;;;;;;7.10;4.15;;;23.40;99.90;;;;;;5071955;28;20044;-73
2023/08/14 01:26:23;;;;;;;8.35;4.53;;;23.40;99.90;;;;;;5052640;28;20025;-74
2023/08/14 01:28:49;;;;;;;9.98;4.78;;;23.30;99.90;;;;;;5071449;28;20063;-74
2023/08/14 01:31:15;;;;;;;8.73;4.43;;;23.30;99.90;;;;;;5073772;28;20016;-73
2023/08/14 01:33:41;;;;;;;6.82;4.55;;;23.30;99.90;;;;;;5072051;28;20036;-74
2023/08/14 01:36:34;;;;;;;9.68;4.00;;;23.30;99.90;;;;;;5072537;28;20028;-73
2023/08/14 01:39:09;;;;;;;8.43;4.40;;;23.40;99.90;;;;;;5072805;28;20406;-73
2023/08/14 01:41:51;;;;;;;8.50;4.63;;;23.50;99.90;;;;;;5070825;28;20724;-74
2023/08/14 01:44:22;;;;;;;9.38;4.57;;;23.50;99.90;;;;;;5073337;28;20033;-73
2023/08/14 01:46:50;;;;;;;7.90;4.63;;;23.50;99.90;;;;;;5072858;28;20021;-73
2023/08/14 01:49:17;;;;;;;10.75;4.38;;;23.60;99.90;;;;;;5074028;28;20020;-73
2023/08/14 01:51:46;;;;;;;6.85;4.30;;;23.60;99.90;;;;;;5072211;28;20013;-74
2023/08/14 01:54:11;;;;;;;8.98;4.85;;;23.70;99.90;;;;;;5073632;28;20017;-73
2023/08/14 01:56:37;;;;;;;9.77;4.20;;;23.70;99.90;;;;;;5071705;28;20031;-73
2023/08/14 01:59:03;;;;;;;7.32;3.92;;;23.70;99.90;;;;;;5074844;28;20085;-73
2023/08/14 02:01:28;;;;;;;6.97;4.05;;;23.70;99.90;;;;;;5075081;28;20091;-73
2023/08/14 02:03:54;;;;;;;7.95;4.57;;;23.80;99.90;;;;;;5077210;28;20044;-73
2023/08/14 02:06:20;;;;;;;7.05;4.47;;;23.80;99.90;;;;;;5074510;28;20021;-74
2023/08/14 02:08:45;;;;;;;6.55;4.18;;;23.80;99.90;;;;;;5077620;28;20496;-74
2023/08/14 02:11:11;;;;;;;5.88;4.07;;;23.80;99.90;;;;;;5076684;28;20017;-74
2023/08/14 02:13:37;;;;;;;7.97;4.05;;;23.80;99.90;;;;;;5077541;28;20033;-74
2023/08/14 02:16:04;;;;;;;10.20;4.47;;;23.90;99.90;;;;;;5073725;28;20027;-73
2023/08/14 02:18:30;;;;;;;11.60;4.88;;;23.90;99.90;;;;;;5076351;28;20625;-73
2023/08/14 02:20:56;;;;;;;9.15;4.25;;;23.90;99.90;;;;;;5068488;28;20028;-74
2023/08/14 02:23:22;;;;;;;7.10;4.10;;;24.00;99.90;;;;;;5075762;28;20047;-74
2023/08/14 02:25:47;;;;;;;7.30;4.20;;;24.00;99.90;;;;;;5071572;28;20048;-73
2023/08/14 02:28:13;;;;;;;6.28;3.92;;;24.00;99.90;;;;;;5072458;28;20017;-72
2023/08/14 02:30:42;;;;;;;8.48;4.32;;;24.00;99.90;;;;;;5063667;28;20036;-73
2023/08/14 02:33:09;;;;;;;6.50;4.10;;;23.90;99.90;;;;;;5058418;28;20032;-74
2023/08/14 02:35:35;;;;;;;7.65;4.03;;;23.90;99.90;;;;;;5055317;28;20271;-73
2023/08/14 02:38:02;;;;;;;6.38;5.22;;;24.00;99.90;;;;;;5068733;28;20404;-73
2023/08/14 02:40:28;;;;;;;6.38;4.25;;;23.90;99.90;;;;;;5063605;28;20122;-73
2023/08/14 02:42:59;;;;;;;6.97;4.30;;;24.00;99.90;;;;;;5065228;28;20112;-73
2023/08/14 02:45:24;;;;;;;5.75;3.70;;;23.90;99.90;;;;;;5059977;28;20024;-73
2023/08/14 02:47:50;;;;;;;14.65;4.22;;;24.00;99.90;;;;;;5049186;28;20033;-73
2023/08/14 02:50:16;;;;;;;8.88;4.00;;;23.90;99.90;;;;;;5060339;28;20029;-73
2023/08/14 02:52:41;;;;;;;10.98;4.63;;;24.00;99.90;;;;;;5062358;28;20033;-73
2023/08/14 02:55:07;;;;;;;11.20;4.45;;;24.00;99.90;;;;;;5059910;28;20464;-73
2023/08/14 02:57:33;;;;;;;5.88;4.00;;;24.00;99.90;;;;;;5061719;28;20052;-74
2023/08/14 02:59:58;;;;;;;8.40;4.72;;;24.00;99.90;;;;;;5061500;28;20080;-74
2023/08/14 03:02:24;;;;;;;7.47;5.00;;;24.00;99.90;;;;;;5071445;28;20116;-74
2023/08/14 03:04:50;;;;;;;11.57;5.55;;;24.00;99.90;;;;;;5066203;28;20480;-74
2023/08/14 03:07:16;;;;;;;8.02;4.57;;;24.00;99.90;;;;;;5071707;28;20574;-73
2023/08/14 03:09:41;;;;;;;9.52;5.10;;;24.00;99.90;;;;;;5065745;28;20020;-73
2023/08/14 03:12:07;;;;;;;9.55;4.90;;;24.00;99.90;;;;;;5071161;28;20031;-73
2023/08/14 03:14:33;;;;;;;9.65;4.45;;;24.00;99.90;;;;;;5067266;28;20028;-74
2023/08/14 03:16:58;;;;;;;10.55;4.28;;;24.00;99.90;;;;;;5071496;28;20021;-74
2023/08/14 03:19:24;;;;;;;7.30;4.15;;;24.00;99.90;;;;;;5066532;28;20578;-73
2023/08/14 03:21:53;;;;;;;10.95;4.40;;;24.00;99.90;;;;;;5062577;28;20414;-74
2023/08/14 03:24:19;;;;;;;11.95;4.90;;;24.00;99.90;;;;;;5067692;28;20068;-73
2023/08/14 03:26:45;;;;;;;6.43;5.03;;;24.00;99.90;;;;;;5071092;28;20488;-73
2023/08/14 03:29:11;;;;;;;8.00;4.35;;;24.00;99.90;;;;;;5067188;28;20036;-74
2023/08/14 03:31:36;;;;;;;6.53;4.63;;;24.00;99.90;;;;;;5071146;28;20099;-73
2023/08/14 03:34:02;;;;;;;7.88;4.05;;;24.00;99.90;;;;;;5065969;28;20021;-74
2023/08/14 03:36:28;;;;;;;7.68;4.35;;;24.00;99.90;;;;;;5069718;28;20489;-73
2023/08/14 03:38:54;;;;;;;10.73;4.18;;;24.00;99.90;;;;;;5064966;28;20050;-74
2023/08/14 03:41:19;;;;;;;9.90;4.78;;;24.00;99.90;;;;;;5070463;28;20028;-74
2023/08/14 03:43:45;;;;;;;8.55;4.35;;;24.00;99.90;;;;;;5064591;28;20202;-74
2023/08/14 03:46:11;;;;;;;6.88;4.43;;;24.00;99.90;;;;;;5068637;28;20086;-74
2023/08/14 03:48:37;;;;;;;8.35;4.65;;;24.00;99.90;;;;;;5063917;28;20029;-74
2023/08/14 03:51:03;;;;;;;12.73;4.60;;;23.90;99.90;;;;;;5070203;28;20548;-74
2023/08/14 03:53:29;;;;;;;6.97;4.28;;;23.90;99.90;;;;;;5065150;28;20070;-71
2023/08/14 03:55:55;;;;;;;9.77;5.25;;;24.00;99.90;;;;;;5071660;28;20055;-71
2023/08/14 03:58:20;;;;;;;7.15;5.07;;;23.90;99.90;;;;;;5070796;28;20051;-71
2023/08/14 04:00:49;;;;;;;11.40;4.22;;;23.90;99.90;;;;;;5073025;28;20028;-71
2023/08/14 04:03:15;;;;;;;11.15;4.95;;;23.90;99.90;;;;;;5058648;28;20588;-70
2023/08/14 04:05:40;;;;;;;8.75;4.45;;;23.90;99.90;;;;;;5060104;28;20056;-71
2023/08/14 04:08:07;;;;;;;9.55;4.60;;;23.90;99.90;;;;;;5049673;28;20014;-70
2023/08/14 04:10:33;;;;;;;7.15;4.32;;;23.90;99.90;;;;;;5066933;28;20112;-71
2023/08/14 04:13:00;;;;;;;11.75;4.85;;;23.90;99.90;;;;;;5073933;28;20050;-70
2023/08/14 04:15:26;;;;;;;7.18;3.80;;;24.00;99.90;;;;;;5071829;28;20028;-71
2023/08/14 04:17:52;;;;;;;7.43;4.55;;;23.80;99.90;;;;;;5073611;28;20088;-70
2023/08/14 04:20:18;;;;;;;6.45;4.40;;;23.80;99.90;;;;;;5069079;28;20500;-70
2023/08/14 04:22:43;;;;;;;7.70;4.28;;;23.70;99.90;;;;;;5072876;28;20056;-71
2023/08/14 04:25:09;;;;;;;7.72;4.18;;;23.70;99.90;;;;;;5074060;28;20028;-71
2023/08/14 04:27:38;;;;;;;7.93;4.47;;;23.70;99.90;;;;;;5068198;28;20028;-70
2023/08/14 04:30:06;;;;;;;6.30;4.03;;;23.70;99.90;;;;;;5065880;28;20020;-71
2023/08/14 04:32:32;;;;;;;5.97;4.43;;;23.70;99.90;;;;;;5059744;28;20035;-70
2023/08/14 04:34:58;;;;;;;8.07;4.45;;;23.70;99.90;;;;;;5065179;28;20036;-71
2023/08/14 04:37:24;;;;;;;6.72;4.38;;;23.60;99.90;;;;;;5052214;28;20025;-70
2023/08/14 04:39:49;;;;;;;6.13;4.30;;;23.60;99.90;;;;;;5066194;28;20047;-70
2023/08/14 04:42:15;;;;;;;5.20;3.90;;;23.50;99.90;;;;;;5061066;28;20509;-71
2023/08/14 04:44:41;;;;;;;8.15;3.90;;;23.60;99.90;;;;;;5066143;28;20070;-71
2023/08/14 04:47:06;;;;;;;5.50;4.13;;;23.50;99.90;;;;;;5060803;28;20032;-71
2023/08/14 04:49:32;;;;;;;5.88;3.67;;;23.50;99.90;;;;;;5064844;28;20025;-71
2023/08/14 04:51:58;;;;;;;6.05;3.95;;;23.40;99.90;;;;;;5060869;28;20027;-71
2023/08/14 04:54:24;;;;;;;7.15;4.13;;;23.40;99.90;;;;;;5060319;28;20103;-71
2023/08/14 04:56:50;;;;;;;5.32;4.03;;;23.40;99.90;;;;;;5053895;28;20480;-70
2023/08/14 04:59:15;;;;;;;5.85;4.13;;;23.40;99.90;;;;;;5066918;28;20056;-71
2023/08/14 05:01:41;;;;;;;7.32;4.55;;;23.30;99.90;;;;;;5065552;28;20017;-70
2023/08/14 05:04:07;;;;;;;6.35;4.38;;;23.30;99.90;;;;;;5063787;28;20013;-70
2023/08/14 05:06:32;;;;;;;7.43;3.80;;;23.30;99.90;;;;;;5070885;28;20020;-70
2023/08/14 05:08:58;;;;;;;6.28;3.72;;;23.20;99.90;;;;;;5072851;28;20021;-70
2023/08/14 05:11:24;;;;;;;7.32;4.32;;;23.20;99.90;;;;;;5058371;28;20098;-70
2023/08/14 05:13:50;;;;;;;9.50;4.28;;;23.20;99.90;;;;;;5060107;28;20077;-70
2023/08/14 05:16:15;;;;;;;5.68;4.13;;;23.20;99.90;;;;;;5057214;28;20111;-71
2023/08/14 05:18:41;;;;;;;5.43;4.05;;;23.20;99.90;;;;;;5068008;28;20099;-71
2023/08/14 05:21:07;;;;;;;7.22;4.07;;;23.10;99.90;;;;;;5070056;28;20103;-71
2023/08/14 05:23:32;;;;;;;5.55;3.97;;;23.10;99.90;;;;;;5073412;28;20045;-71
2023/08/14 05:25:58;;;;;;;6.43;3.80;;;23.10;99.90;;;;;;5067021;28;20550;-71
2023/08/14 05:28:23;;;;;;;8.98;4.55;;;23.10;99.90;;;;;;5062700;28;20044;-70
2023/08/14 05:30:49;;;;;;;7.88;4.72;;;23.10;99.90;;;;;;5058587;28;20029;-70
2023/08/14 05:33:15;;;;;;;5.18;4.35;;;23.10;99.90;;;;;;5057043;28;20028;-70
2023/08/14 05:35:41;;;;;;;6.07;4.43;;;23.20;99.90;;;;;;5064470;28;20029;-70
2023/08/14 05:38:06;;;;;;;8.70;4.40;;;23.10;99.90;;;;;;5054230;28;20024;-70
2023/08/14 05:40:32;;;;;;;6.28;4.05;;;23.10;99.90;;;;;;5062597;28;20071;-70
2023/08/14 05:43:08;;;;;;;7.93;4.40;;;23.20;99.90;;;;;;5067338;28;20499;-70
2023/08/14 05:45:38;;;;;;;6.88;4.15;;;23.20;99.90;;;;;;5063531;28;20024;-71
2023/08/14 05:48:06;;;;;;;6.85;3.90;;;23.20;99.90;;;;;;5073366;28;20048;-71
2023/08/14 05:50:33;;;;;;;6.88;4.22;;;23.20;99.90;;;;;;5074319;28;20043;-71
2023/08/14 05:53:03;;;;;;;8.07;4.00;;;23.20;99.90;;;;;;5068313;28;20025;-71
2023/08/14 05:55:30;;;;;;;;;;;23.20;99.90;;;;;;5073010;28;20475;-71
2023/08/14 05:57:56;;;;;;;5.75;3.60;;;23.30;99.90;;;;;;5072785;28;19904;-72
2023/08/14 06:00:22;;;;;;;6.20;4.20;;;23.20;99.90;;;;;;5076291;28;20074;-71
2023/08/14 06:02:48;;;;;;;7.00;4.32;;;23.20;99.90;;;;;;5071790;28;20032;-72
2023/08/14 06:05:13;;;;;;;6.38;4.10;;;23.20;99.90;;;;;;5070689;28;20020;-71
2023/08/14 06:07:39;;;;;;;7.13;4.32;;;23.30;99.90;;;;;;5067248;28;20104;-70
2023/08/14 06:10:06;;;;;;;7.75;4.40;;;23.30;99.90;;;;;;5069266;28;20051;-71
2023/08/14 06:12:32;;;;;;;9.40;4.50;;;23.20;99.90;;;;;;5066341;28;20033;-71
2023/08/14 06:14:58;;;;;;;8.30;4.43;;;23.20;99.90;;;;;;5063985;28;20052;-72
2023/08/14 06:17:25;;;;;;;6.25;3.92;;;23.30;99.90;;;;;;5061641;28;20036;-71
2023/08/14 06:19:51;;;;;;;8.48;4.38;;;23.30;99.90;;;;;;5058481;28;20025;-70
2023/08/14 06:22:17;;;;;;;6.63;3.88;;;23.40;99.90;;;;;;5059949;28;20400;-71
2023/08/14 06:24:43;;;;;;;10.15;4.15;;;23.40;99.90;;;;;;5057003;28;20041;-71
2023/08/14 06:27:09;;;;;;;8.98;4.45;;;23.50;99.90;;;;;;5057010;28;20029;-71
2023/08/14 06:29:34;;;;;;;6.70;4.60;;;23.70;99.90;;;;;;5042575;28;20505;-71
2023/08/14 06:32:00;;;;;;;8.63;4.15;;;23.80;99.90;;;;;;5060408;28;20071;-70
2023/08/14 06:34:27;;;;;;;11.27;3.92;;;23.90;99.90;;;;;;5060224;28;20021;-70
2023/08/14 06:36:53;;;;;;;7.47;4.05;;;24.00;99.90;;;;;;5041092;28;20024;-71
2023/08/14 06:39:18;;;;;;;9.82;4.63;;;24.10;99.90;;;;;;5045562;28;20568;-72
2023/08/14 06:41:44;;;;;;;8.13;4.15;;;24.20;99.90;;;;;;5057992;28;20044;-71
2023/08/14 06:44:11;;;;;;;8.60;4.18;;;24.30;99.90;;;;;;5060011;28;20389;-71
2023/08/14 06:46:37;;;;;;;5.90;3.58;;;24.40;99.90;;;;;;5059298;28;20035;-71
2023/08/14 06:49:03;;;;;;;9.52;4.35;;;24.50;99.90;;;;;;5054470;28;20134;-71
2023/08/14 06:51:29;;;;;;;6.43;3.80;;;24.60;99.90;;;;;;5060536;28;20056;-70
2023/08/14 06:53:54;;;;;;;6.93;3.80;;;24.60;99.90;;;;;;5060521;28;20025;-70
2023/08/14 06:56:20;;;;;;;7.25;4.32;;;24.60;99.90;;;;;;5059809;28;20029;-71
2023/08/14 06:58:46;;;;;;;6.68;3.78;;;24.60;99.90;;;;;;5052941;28;20110;-71
2023/08/14 07:01:12;;;;;;;6.85;3.70;;;24.40;99.90;;;;;;5057594;28;20025;-70
2023/08/14 07:03:38;;;;;;;5.22;4.28;;;24.30;99.90;;;;;;5055501;28;20021;-71
2023/08/14 07:06:04;;;;;;;6.40;3.97;;;24.20;99.90;;;;;;5061577;28;20075;-71
2023/08/14 07:08:30;;;;;;;7.00;4.13;;;24.40;99.90;;;;;;5057659;28;20029;-71
2023/08/14 07:10:56;;;;;;;7.65;4.20;;;24.60;99.90;;;;;;5058275;28;20390;-72
2023/08/14 07:13:22;;;;;;;7.90;3.97;;;24.80;99.90;;;;;;5057980;28;20028;-71
2023/08/14 07:15:48;;;;;;;4.80;3.30;;;25.00;99.90;;;;;;5060344;28;20033;-70
2023/08/14 07:18:15;;;;;;;8.32;3.80;;;25.20;99.90;;;;;;5057395;28;20052;-71
2023/08/14 07:20:41;;;;;;;9.25;4.15;;;25.40;99.90;;;;;;5056166;28;20035;-71
2023/08/14 07:23:07;;;;;;;9.20;3.72;;;25.40;99.90;;;;;;5060043;28;20133;-71
2023/08/14 07:25:33;;;;;;;6.72;3.80;;;25.60;99.90;;;;;;5056326;28;20033;-72
2023/08/14 07:27:59;;;;;;;8.60;3.72;;;25.70;99.90;;;;;;5054513;28;20025;-71
2023/08/14 07:30:24;;;;;;;7.93;4.28;;;25.70;99.90;;;;;;5057949;28;20029;-71
2023/08/14 07:32:50;;;;;;;7.30;4.50;;;25.90;99.90;;;;;;5056731;28;20024;-71
2023/08/14 07:35:16;;;;;;;8.30;4.30;;;26.00;99.90;;;;;;5059905;28;20468;-72
2023/08/14 07:37:41;;;;;;;5.82;3.50;;;25.90;99.90;;;;;;5060008;28;20024;-70
2023/08/14 07:40:08;;;;;;;6.80;3.38;;;25.80;99.90;;;;;;5056483;28;20051;-72
2023/08/14 07:42:33;;;;;;;14.07;3.60;;;25.80;99.90;;;;;;5058092;28;20586;-74
2023/08/14 07:44:59;;;;;;;8.05;3.60;;;25.90;99.90;;;;;;5059360;28;20033;-75
2023/08/14 07:47:25;;;;;;;8.52;3.30;;;25.90;99.90;;;;;;5054297;28;20408;-73
2023/08/14 07:49:51;;;;;;;6.90;3.80;;;26.00;99.90;;;;;;5058826;28;20025;-74
2023/08/14 07:52:17;;;;;;;7.55;4.05;;;26.10;99.90;;;;;;5057641;28;20565;-72
2023/08/14 07:54:42;;;;;;;7.32;3.92;;;26.20;99.90;;;;;;5051657;28;20025;-74
2023/08/14 07:57:08;;;;;;;8.68;3.97;;;26.30;99.90;;;;;;5056093;28;20092;-74
2023/08/14 07:59:34;;;;;;;7.40;3.40;;;26.50;99.90;;;;;;5057582;28;20021;-73
2023/08/14 08:01:59;;;;;;;10.05;3.60;;;26.60;99.90;;;;;;5056527;28;20032;-73
2023/08/14 08:04:25;;;;;;;6.40;3.28;;;26.60;99.90;;;;;;5057257;28;20035;-72
2023/08/14 08:06:50;;;;;;;6.35;3.63;;;26.60;99.90;;;;;;5058806;28;20720;-74
2023/08/14 08:09:17;;;;;;;9.60;4.85;;;26.70;99.90;;;;;;5054739;28;20033;-74
2023/08/14 08:11:43;;;;;;;7.45;3.28;;;26.70;99.90;;;;;;5055819;28;20032;-74
2023/08/14 08:14:08;;;;;;;7.32;3.20;;;26.80;99.90;;;;;;5051199;28;20025;-73
2023/08/14 08:16:37;;;;;;;7.60;3.38;;;27.00;99.90;;;;;;5053995;28;20111;-73
2023/08/14 08:19:06;;;;;;;10.68;2.97;;;27.20;99.90;;;;;;5052151;28;20024;-72
2023/08/14 08:21:32;;;;;;;11.30;3.20;;;27.20;99.90;;;;;;5052319;28;20029;-74
2023/08/14 08:23:58;;;;;;;9.93;3.17;;;27.30;99.90;;;;;;5054896;28;20049;-75
2023/08/14 08:26:25;;;;;;;8.70;4.00;;;27.20;99.90;;;;;;5057353;28;20021;-72
2023/08/14 08:28:51;;;;;;;9.02;3.65;;;27.20;99.90;;;;;;5054677;28;20087;-73
2023/08/14 08:31:17;;;;;;;9.10;3.20;;;27.20;99.90;;;;;;5058234;28;20052;-74
2023/08/14 08:33:42;;;;;;;6.43;3.13;;;27.20;99.90;;;;;;5058005;28;20032;-73
2023/08/14 08:36:08;;;;;;;8.80;3.90;;;27.20;99.90;;;;;;5055221;28;20025;-73
2023/08/14 08:38:34;;;;;;;12.80;3.95;;;27.20;99.90;;;;;;5059663;28;20029;-73
2023/08/14 08:41:03;;;;;;;6.85;3.60;;;27.40;99.90;;;;;;5056510;28;20017;-73
2023/08/14 08:43:30;;;;;;;6.85;3.22;;;27.40;99.90;;;;;;5055286;28;20027;-72
2023/08/14 08:45:58;;;;;;;10.80;3.50;;;27.50;99.90;;;;;;5058246;28;20021;-74
2023/08/14 08:48:24;;;;;;;13.07;3.63;;;27.70;99.90;;;;;;5055894;28;20028;-73
2023/08/14 08:50:51;;;;;;;9.80;4.25;;;27.70;99.90;;;;;;5058675;28;20019;-73
2023/08/14 08:53:21;;;;;;;9.52;3.30;;;27.70;99.90;;;;;;5059212;28;20113;-74
2023/08/14 08:55:47;;;;;;;7.80;3.38;;;27.70;99.90;;;;;;5046573;28;20029;-74
2023/08/14 08:58:17;;;;;;;9.40;3.53;;;27.70;99.90;;;;;;5053738;28;20033;-76
2023/08/14 09:00:43;;;;;;;7.93;3.58;;;27.90;99.90;;;;;;5054306;28;20048;-72
2023/08/14 09:03:09;;;;;;;9.18;3.45;;;27.90;99.90;;;;;;5049881;28;20025;-73
2023/08/14 09:05:36;;;;;;;6.05;3.08;;;28.00;99.90;;;;;;5054965;28;20013;-73
2023/08/14 09:08:02;;;;;;;9.55;3.30;;;28.00;99.90;;;;;;5049988;28;20028;-72
2023/08/14 09:10:28;;;;;;;13.70;3.42;;;28.10;99.90;;;;;;5054500;28;20139;-75
2023/08/14 09:12:55;;;;;;;6.03;3.10;;;28.20;99.90;;;;;;5053813;28;20057;-73
2023/08/14 09:15:23;;;;;;;5.75;2.33;;;28.10;99.90;;;;;;5057104;28;20029;-73
2023/08/14 09:17:51;;;;;;;9.73;3.60;;;28.00;99.90;;;;;;5054824;28;20036;-73
2023/08/14 09:20:18;;;;;;;9.13;3.30;;;28.20;99.90;;;;;;5053271;28;20033;-74
2023/08/14 09:22:44;;;;;;;8.68;3.38;;;28.20;99.90;;;;;;5059701;28;20028;-73
2023/08/14 09:25:10;;;;;;;10.18;3.40;;;28.00;99.90;;;;;;5060316;28;20032;-74
2023/08/14 09:27:37;;;;;;;8.05;3.17;;;27.70;99.90;;;;;;5056053;28;20036;-74
2023/08/14 09:30:05;;;;;;;9.25;2.85;;;27.90;99.90;;;;;;5054351;28;20432;-73
2023/08/14 09:32:32;;;;;;;8.70;3.47;;;27.90;99.90;;;;;;5056325;28;20021;-73
2023/08/14 09:35:02;;;;;;;13.98;3.63;;;27.90;99.90;;;;;;5054564;28;20565;-74
2023/08/14 09:37:28;;;;;;;8.45;3.38;;;28.10;99.90;;;;;;5055916;28;20131;-72
2023/08/14 09:40:16;;;;;;;8.45;3.38;;;28.00;99.90;;;;;;5058114;28;20033;-72
2023/08/14 09:42:52;;;;;;;6.75;2.75;;;27.90;99.90;;;;;;5057074;28;20037;-73
2023/08/14 09:45:23;;;;;;;10.10;3.03;;;27.80;99.90;;;;;;5051671;28;20029;-74
2023/08/14 09:47:49;;;;;;;8.93;3.00;;;27.80;99.90;;;;;;5055987;28;20213;-73
2023/08/14 09:50:16;;;;;;;7.32;3.67;;;27.60;99.90;;;;;;5056726;28;20108;-72
2023/08/14 09:52:45;;;;;;;12.27;3.47;;;27.60;99.90;;;;;;5053635;28;20043;-72
2023/08/14 09:55:13;;;;;;;9.10;2.78;;;27.80;99.90;;;;;;5050880;28;20469;-72
2023/08/14 09:57:40;;;;;;;6.15;3.10;;;27.70;99.90;;;;;;5047328;28;20112;-74
2023/08/14 10:00:06;;;;;;;9.27;3.50;;;27.70;99.90;;;;;;5052845;28;20017;-72
2023/08/14 10:02:33;;;;;;;7.95;3.53;;;27.80;99.90;;;;;;5055724;28;20025;-73
2023/08/14 10:05:01;;;;;;;5.75;3.00;;;28.10;99.90;;;;;;5055633;28;20075;-74
2023/08/14 10:07:28;;;;;;;7.47;3.42;;;28.20;99.90;;;;;;5056320;28;20036;-75
2023/08/14 10:09:59;;;;;;;7.35;3.03;;;28.10;99.90;;;;;;5057851;28;20615;-73
2023/08/14 10:12:32;;;;;;;5.45;3.15;;;28.10;99.90;;;;;;5056560;28;20044;-73
2023/08/14 10:15:11;;;;;;;11.23;3.28;;;28.40;99.90;;;;;;5051819;28;20021;-72
2023/08/14 10:17:55;;;;;;;7.63;3.88;;;28.80;99.90;;;;;;5053456;28;20029;-75
2023/08/14 10:20:22;;;;;;;10.98;3.40;;;29.00;99.90;;;;;;5055509;28;20033;-74
2023/08/14 10:22:50;;;;;;;9.95;3.17;;;29.10;99.90;;;;;;5061353;28;20032;-72
2023/08/14 10:25:17;;;;;;;12.73;3.28;;;28.70;99.90;;;;;;5058790;28;20102;-73
2023/08/14 10:27:43;;;;;;;6.43;2.78;;;28.70;99.90;;;;;;5058744;28;20017;-74
2023/08/14 10:30:10;;;;;;;12.27;3.33;;;28.70;99.90;;;;;;5058754;28;20028;-73
2023/08/14 10:32:37;;;;;;;9.40;2.97;;;28.50;99.90;;;;;;5057747;28;20033;-73
2023/08/14 10:35:03;;;;;;;7.72;3.17;;;28.40;99.90;;;;;;5060367;28;20036;-72
2023/08/14 10:37:40;;;;;;;5.20;2.47;;;28.40;99.90;;;;;;5059741;28;20211;-76
2023/08/14 10:40:18;;;;;;;9.50;3.03;;;28.30;99.90;;;;;;5058710;28;20032;-74
2023/08/14 10:42:45;;;;;;;5.28;2.97;;;28.40;99.90;;;;;;5057918;28;20071;-72
2023/08/14 10:45:11;;;;;;;6.18;2.88;;;28.40;99.90;;;;;;5060797;28;20048;-73
2023/08/14 10:47:38;;;;;;;8.38;3.95;;;28.50;99.90;;;;;;5056324;28;20422;-72
2023/08/14 10:50:19;;;;;;;8.75;3.25;;;28.50;99.90;;;;;;5062136;28;20044;-73
2023/08/14 10:52:50;;;;;;;6.40;2.95;;;28.60;99.90;;;;;;5051011;28;20025;-73
2023/08/14 10:55:24;;;;;;;8.73;3.50;;;28.70;99.90;;;;;;5056956;28;20025;-74
2023/08/14 10:57:50;;;;;;;7.07;2.70;;;28.80;99.90;;;;;;5056077;28;20036;-75
2023/08/14 11:00:24;;;;;;;7.65;2.97;;;28.80;99.90;;;;;;5056936;28;20516;-75
2023/08/14 11:03:07;;;;;;;8.85;3.45;;;28.70;99.90;;;;;;5055420;28;20111;-75
2023/08/14 11:05:40;;;;;;;9.48;3.17;;;28.70;99.90;;;;;;5055132;28;20033;-76
2023/08/14 11:08:07;;;;;;;6.13;3.28;;;28.80;99.90;;;;;;5056146;28;20017;-75
2023/08/14 11:10:36;;;;;;;5.32;2.97;;;28.70;99.90;;;;;;5054757;28;20061;-74
2023/08/14 11:13:06;;;;;;;8.15;3.00;;;28.70;99.90;;;;;;5056679;28;20021;-77
2023/08/14 11:15:33;;;;;;;8.20;3.28;;;28.80;99.90;;;;;;5061605;28;20138;-75
2023/08/14 11:18:00;;;;;;;16.17;3.50;;;28.70;99.90;;;;;;5058426;28;20033;-75
2023/08/14 11:20:29;;;;;;;12.02;4.47;;;28.90;99.90;;;;;;5058357;28;20055;-74
2023/08/14 11:22:55;;;;;;;9.47;3.23;;;29.10;99.90;;;;;;5059311;28;20075;-78
2023/08/14 11:25:22;;;;;;;8.52;3.38;;;29.40;99.90;;;;;;5059415;28;20040;-73
2023/08/14 11:27:52;;;;;;;6.05;2.60;;;29.40;99.90;;;;;;5055770;28;20033;-73
2023/08/14 11:30:19;;;;;;;6.97;2.63;;;29.50;99.90;;;;;;5061307;28;20063;-74
2023/08/14 11:32:45;;;;;;;8.10;2.38;;;29.40;99.90;;;;;;5054619;28;20036;-72
2023/08/14 11:35:11;;;;;;;6.18;2.78;;;29.40;99.90;;;;;;5058317;28;20024;-73
2023/08/14 11:37:37;;;;;;;11.15;3.35;;;29.30;99.90;;;;;;5057996;28;20075;-74
2023/08/14 11:40:05;;;;;;;4.70;2.97;;;29.30;99.90;;;;;;5056533;28;20025;-77
2023/08/14 11:42:32;;;;;;;9.13;3.33;;;29.30;99.90;;;;;;5055483;28;20029;-74
2023/08/14 11:45:03;;;;;;;9.10;3.35;;;29.40;99.90;;;;;;5057180;28;20024;-75
2023/08/14 11:47:34;;;;;;;8.30;4.10;;;29.40;99.90;;;;;;5057433;28;20069;-76
2023/08/14 11:50:00;;;;;;;7.18;3.10;;;29.50;99.90;;;;;;5061427;28;20028;-75
2023/08/14 11:52:26;;;;;;;9.05;3.08;;;29.60;99.90;;;;;;5058840;28;20017;-77
2023/08/14 11:54:56;;;;;;;10.23;2.63;;;29.50;99.90;;;;;;5056930;28;20428;-74
2023/08/14 11:57:32;;;;;;;10.35;3.05;;;29.40;99.90;;;;;;5060177;28;20036;-74
2023/08/14 11:59:59;;;;;;;6.78;3.30;;;29.50;99.90;;;;;;5056243;28;20084;-74
2023/08/14 12:02:28;;;;;;;9.80;3.00;;;29.70;99.90;;;;;;5056120;28;20051;-74
2023/08/14 12:05:00;;;;;;;4.85;2.75;;;29.70;99.90;;;;;;5057947;28;20035;-73
2023/08/14 12:07:27;;;;;;;9.05;2.67;;;29.70;99.90;;;;;;5053101;28;20104;-74
2023/08/14 12:09:54;;;;;;;5.15;2.85;;;29.80;99.90;;;;;;5059586;28;20028;-77
2023/08/14 12:12:20;;;;;;;7.57;3.50;;;29.80;99.90;;;;;;5057036;28;20036;-75
2023/08/14 12:14:48;;;;;;;11.48;3.92;;;29.80;99.90;;;;;;5044908;28;20033;-76
2023/08/14 12:17:15;;;;;;;5.35;3.30;;;29.80;99.90;;;;;;5041478;28;20032;-77
2023/08/14 12:19:42;;;;;;;6.32;3.20;;;29.80;99.90;;;;;;5057540;28;20041;-75
2023/08/14 12:22:09;;;;;;;6.80;2.80;;;29.90;99.90;;;;;;5058202;28;20459;-75
2023/08/14 12:24:42;;;;;;;6.75;2.88;;;29.90;99.90;;;;;;5056421;28;20048;-75
2023/08/14 12:27:34;;;;;;;7.15;2.88;;;30.10;99.90;;;;;;5056326;28;20471;-75
2023/08/14 12:29:59;;;;;;;6.03;2.88;;;30.30;99.90;;;;;;5056292;28;20051;-74
2023/08/14 12:32:26;;;;;;;8.48;3.28;;;30.40;99.90;;;;;;5058309;28;20029;-73
2023/08/14 12:34:52;;;;;;;6.70;3.00;;;30.30;99.90;;;;;;5055075;28;20397;-74
2023/08/14 12:37:18;;;;;;;9.32;3.30;;;30.30;99.90;;;;;;5059075;28;20048;-74
2023/08/14 12:39:52;;;;;;;7.45;4.10;;;30.30;99.90;;;;;;5054843;28;20025;-74
2023/08/14 12:42:18;;;;;;;8.15;3.47;;;30.30;99.90;;;;;;5055650;28;20025;-75
2023/08/14 12:44:44;;;;;;;8.48;3.45;;;30.40;99.90;;;;;;5056858;28;20060;-74